Time;durP1;ratioP1;P1;durP2;ratioP2;P2;SDS_P1;SDS_P2;PMS_P1;PMS_P2;Temp;Humidity;BMP_temperature;BMP_pressure;BME280_temperature;BME280_humidity;BME280_pressure;Samples;Min_cycle;Max_cycle;Signal;HPM_P1;HPM_P2
2021/10/15 00:01:42;;;;;;;3.47;3.07;;;;;;;;;;5117420;27;20801;-80
2021/10/15 00:04:09;;;;;;;4.80;2.70;;;;;;;;;;5124453;27;20477;-82
2021/10/15 00:06:37;;;;;;;5.87;3.00;;;;;;;;;;5130880;27;20558;-81
2021/10/15 00:09:04;;;;;;;3.73;3.10;;;;;;;;;;5101490;27;20446;-82
2021/10/15 00:11:31;;;;;;;5.73;2.80;;;;;;;;;;5110714;28;20441;-80
2021/10/15 00:13:58;;;;;;;3.40;2.93;;;;;;;;;;5101925;28;20479;-80
2021/10/15 00:16:26;;;;;;;4.80;3.00;;;;;;;;;;5112905;27;20454;-82
2021/10/15 00:18:54;;;;;;;4.00;2.60;;;;;;;;;;5113985;27;20443;-80
2021/10/15 00:21:21;;;;;;;3.50;2.57;;;;;;;;;;5108319;28;20457;-81
2021/10/15 00:23:49;;;;;;;6.40;2.73;;;;;;;;;;5110166;28;20462;-79
2021/10/15 00:26:16;;;;;;;5.60;2.93;;;;;;;;;;5108097;28;20482;-81
2021/10/15 00:28:43;;;;;;;4.93;3.00;;;;;;;;;;5105939;28;20459;-80
2021/10/15 00:31:10;;;;;;;3.50;2.70;;;;;;;;;;5100695;28;20967;-81
2021/10/15 00:33:38;;;;;;;3.17;2.53;;;;;;;;;;5111883;28;20486;-80
2021/10/15 00:36:06;;;;;;;7.53;3.20;;;;;;;;;;5109963;27;20454;-81
2021/10/15 00:38:34;;;;;;;3.37;2.33;;;;;;;;;;5116946;27;20788;-81
2021/10/15 00:41:01;;;;;;;2.83;2.63;;;;;;;;;;5113691;27;20439;-82
2021/10/15 00:43:28;;;;;;;5.77;3.10;;;;;;;;;;5109704;28;20462;-80
2021/10/15 00:45:55;;;;;;;4.80;3.40;;;;;;;;;;5109862;28;20493;-81
2021/10/15 00:48:22;;;;;;;3.10;2.80;;;;;;;;;;5110200;28;20434;-80
2021/10/15 00:50:51;;;;;;;4.93;3.40;;;;;;;;;;5105477;28;20453;-80
2021/10/15 00:53:20;;;;;;;4.93;2.93;;;;;;;;;;5107542;28;20473;-82
2021/10/15 00:55:47;;;;;;;8.90;3.90;;;;;;;;;;5111801;28;20439;-80
2021/10/15 00:58:14;;;;;;;4.87;3.80;;;;;;;;;;5110244;27;20462;-80
2021/10/15 01:00:41;;;;;;;4.63;3.00;;;;;;;;;;5116650;27;20790;-80
2021/10/15 01:03:09;;;;;;;4.90;3.47;;;;;;;;;;5110959;27;20458;-81
2021/10/15 01:05:36;;;;;;;4.50;3.00;;;;;;;;;;5109311;28;20508;-80
2021/10/15 01:08:03;;;;;;;5.57;4.30;;;;;;;;;;5107233;28;20454;-79
2021/10/15 01:10:32;;;;;;;5.77;3.87;;;;;;;;;;5103880;28;21103;-82
2021/10/15 01:12:59;;;;;;;5.20;3.80;;;;;;;;;;5094796;28;20561;-80
2021/10/15 01:15:29;;;;;;;3.73;3.33;;;;;;;;;;5115608;27;20521;-81
2021/10/15 01:17:56;;;;;;;6.30;3.80;;;;;;;;;;5113935;27;20501;-81
2021/10/15 01:20:25;;;;;;;4.80;3.83;;;;;;;;;;5108652;28;20442;-81
2021/10/15 01:22:52;;;;;;;4.00;3.23;;;;;;;;;;5100613;28;20856;-82
2021/10/15 01:25:20;;;;;;;4.47;3.70;;;;;;;;;;5088675;28;21005;-82
2021/10/15 01:27:47;;;;;;;7.80;3.90;;;;;;;;;;5088236;28;20436;-81
2021/10/15 01:30:14;;;;;;;4.73;3.77;;;;;;;;;;5105579;28;20457;-83
2021/10/15 01:32:42;;;;;;;5.90;3.90;;;;;;;;;;5113932;27;20475;-80
2021/10/15 01:35:09;;;;;;;4.00;3.60;;;;;;;;;;5129065;27;20445;-79
2021/10/15 01:37:38;;;;;;;4.83;3.93;;;;;;;;;;5116782;27;20954;-81
2021/10/15 01:40:06;;;;;;;6.83;3.50;;;;;;;;;;5095072;28;20454;-82
2021/10/15 01:45:14;;;;;;;7.53;3.93;;;;;;;;;;5098200;27;21707;-80
2021/10/15 01:47:41;;;;;;;5.73;3.53;;;;;;;;;;5119275;27;20977;-81
2021/10/15 01:50:09;;;;;;;4.50;4.10;;;;;;;;;;5125933;27;20433;-80
2021/10/15 01:52:37;;;;;;;7.20;4.03;;;;;;;;;;5092527;28;20443;-81
2021/10/15 01:55:06;;;;;;;7.50;4.17;;;;;;;;;;5092564;28;20827;-81
2021/10/15 01:57:34;;;;;;;5.33;3.77;;;;;;;;;;5092069;28;20459;-83
2021/10/15 02:00:01;;;;;;;6.37;3.80;;;;;;;;;;5099916;28;20454;-81
2021/10/15 02:02:28;;;;;;;4.90;3.93;;;;;;;;;;5102622;27;20490;-82
2021/10/15 02:04:55;;;;;;;5.23;3.23;;;;;;;;;;5119124;27;20775;-82
2021/10/15 02:07:22;;;;;;;5.50;4.10;;;;;;;;;;5110284;27;20493;-82
2021/10/15 02:09:50;;;;;;;5.47;4.40;;;;;;;;;;5110512;28;20469;-81
2021/10/15 02:12:18;;;;;;;6.87;4.30;;;;;;;;;;5112864;28;20520;-81
2021/10/15 02:14:46;;;;;;;6.17;3.73;;;;;;;;;;5110749;28;20458;-80
2021/10/15 02:17:13;;;;;;;7.33;4.80;;;;;;;;;;5112836;27;21698;-80
2021/10/15 02:19:40;;;;;;;9.10;3.63;;;;;;;;;;5117809;27;20464;-80
2021/10/15 02:22:08;;;;;;;7.13;4.10;;;;;;;;;;5114300;27;20438;-79
2021/10/15 02:24:35;;;;;;;4.60;3.80;;;;;;;;;;5110317;28;20478;-82
2021/10/15 02:27:02;;;;;;;5.13;3.37;;;;;;;;;;5107158;28;20493;-82
2021/10/15 02:29:31;;;;;;;6.37;4.77;;;;;;;;;;5101322;28;20943;-81
2021/10/15 02:31:58;;;;;;;5.50;3.87;;;;;;;;;;5101162;28;20451;-81
2021/10/15 02:34:25;;;;;;;9.53;4.33;;;;;;;;;;5093041;28;20479;-79
2021/10/15 02:36:53;;;;;;;10.57;4.30;;;;;;;;;;5102877;28;20466;-80
2021/10/15 02:39:20;;;;;;;8.23;4.37;;;;;;;;;;5116753;27;20771;-79
2021/10/15 02:41:47;;;;;;;3.87;3.47;;;;;;;;;;5114367;27;20454;-79
2021/10/15 02:44:15;;;;;;;8.07;4.50;;;;;;;;;;5122389;27;20480;-80
2021/10/15 02:46:44;;;;;;;5.40;3.90;;;;;;;;;;5104210;28;20493;-80
2021/10/15 02:49:11;;;;;;;8.60;4.40;;;;;;;;;;5112528;28;20954;-80
2021/10/15 02:51:38;;;;;;;5.30;4.10;;;;;;;;;;5107918;28;20454;-79
2021/10/15 02:54:06;;;;;;;6.10;4.40;;;;;;;;;;5104960;28;20485;-79
2021/10/15 02:56:33;;;;;;;7.60;4.60;;;;;;;;;;5116039;28;20446;-79
2021/10/15 02:59:01;;;;;;;7.83;4.53;;;;;;;;;;5107211;28;20451;-81
2021/10/15 03:01:28;;;;;;;8.83;4.77;;;;;;;;;;5105563;27;20529;-81
2021/10/15 03:03:56;;;;;;;6.37;4.60;;;;;;;;;;5115179;27;20469;-80
2021/10/15 03:06:23;;;;;;;8.10;4.27;;;;;;;;;;5113695;27;20482;-80
2021/10/15 03:08:51;;;;;;;8.40;4.20;;;;;;;;;;5111997;28;20437;-81
2021/10/15 03:11:18;;;;;;;7.53;4.37;;;;;;;;;;5095462;28;20455;-80
2021/10/15 03:13:45;;;;;;;6.37;4.50;;;;;;;;;;5111698;28;20462;-81
2021/10/15 03:16:12;;;;;;;6.53;3.93;;;;;;;;;;5103768;27;20442;-81
2021/10/15 03:18:40;;;;;;;10.80;4.40;;;;;;;;;;5117810;27;20446;-83
2021/10/15 03:21:23;;;;;;;6.77;4.30;;;;;;;;;;5118504;27;20840;-79
2021/10/15 03:23:50;;;;;;;4.53;3.97;;;;;;;;;;5095737;27;20483;-79
2021/10/15 03:26:18;;;;;;;8.30;5.00;;;;;;;;;;5109453;28;20482;-80
2021/10/15 03:28:45;;;;;;;7.17;3.70;;;;;;;;;;5111790;28;20534;-80
2021/10/15 03:31:12;;;;;;;4.90;3.63;;;;;;;;;;5104337;27;20450;-79
2021/10/15 03:33:39;;;;;;;6.60;3.83;;;;;;;;;;5114175;27;20475;-79
2021/10/15 03:36:06;;;;;;;5.93;4.33;;;;;;;;;;5125042;27;20425;-81
2021/10/15 03:38:35;;;;;;;5.03;3.67;;;;;;;;;;5119781;27;20466;-79
2021/10/15 03:41:02;;;;;;;6.43;4.00;;;;;;;;;;5094409;28;20966;-80
2021/10/15 03:43:29;;;;;;;5.43;3.53;;;;;;;;;;5105979;28;20481;-80
2021/10/15 03:45:57;;;;;;;8.23;4.00;;;;;;;;;;5091907;28;20451;-81
2021/10/15 03:48:24;;;;;;;6.03;3.53;;;;;;;;;;5112083;27;20464;-82
2021/10/15 03:50:51;;;;;;;4.37;3.53;;;;;;;;;;5115305;27;20434;-80
2021/10/15 03:53:18;;;;;;;5.20;3.70;;;;;;;;;;5108712;28;20470;-79
2021/10/15 03:55:47;;;;;;;6.47;4.17;;;;;;;;;;5110753;28;21008;-80
2021/10/15 03:58:14;;;;;;;5.30;3.50;;;;;;;;;;5108705;28;20451;-81
2021/10/15 04:00:41;;;;;;;6.50;4.10;;;;;;;;;;5107785;28;20911;-80
2021/10/15 04:03:08;;;;;;;9.47;3.97;;;;;;;;;;5096190;27;20457;-82
2021/10/15 04:05:36;;;;;;;5.83;3.70;;;;;;;;;;5117020;27;20430;-81
2021/10/15 04:08:03;;;;;;;6.00;3.90;;;;;;;;;;5112109;27;20482;-80
2021/10/15 04:10:31;;;;;;;5.57;3.83;;;;;;;;;;5100791;28;20901;-80
2021/10/15 04:12:59;;;;;;;5.87;3.70;;;;;;;;;;5110200;28;20470;-80
2021/10/15 04:15:26;;;;;;;5.77;4.33;;;;;;;;;;5108423;28;20458;-80
2021/10/15 04:17:53;;;;;;;4.53;3.73;;;;;;;;;;5110261;27;20806;-79
2021/10/15 04:20:21;;;;;;;11.37;4.60;;;;;;;;;;5115568;27;20441;-79
2021/10/15 04:22:48;;;;;;;8.63;4.57;;;;;;;;;;5103440;27;20478;-80
2021/10/15 04:25:15;;;;;;;6.43;4.00;;;;;;;;;;5110373;28;20978;-81
2021/10/15 04:27:42;;;;;;;7.93;4.23;;;;;;;;;;5107933;28;20945;-79
2021/10/15 04:30:11;;;;;;;7.80;4.30;;;;;;;;;;5088333;28;20448;-80
2021/10/15 04:32:38;;;;;;;5.03;4.07;;;;;;;;;;5098307;28;20972;-80
2021/10/15 04:35:06;;;;;;;5.83;4.20;;;;;;;;;;5100591;28;20452;-80
2021/10/15 04:37:33;;;;;;;8.87;4.70;;;;;;;;;;5092534;28;20487;-81
2021/10/15 04:40:00;;;;;;;6.83;4.20;;;;;;;;;;5110069;27;20537;-80
2021/10/15 04:42:28;;;;;;;4.30;3.90;;;;;;;;;;5115242;27;20461;-79
2021/10/15 04:44:55;;;;;;;7.50;4.30;;;;;;;;;;5112204;27;20451;-79
2021/10/15 04:47:23;;;;;;;4.90;4.10;;;;;;;;;;5105730;28;20470;-83
2021/10/15 04:49:51;;;;;;;8.47;3.87;;;;;;;;;;5095606;28;20459;-83
2021/10/15 04:52:18;;;;;;;5.13;4.17;;;;;;;;;;5089037;28;20752;-81
2021/10/15 04:54:45;;;;;;;6.53;4.40;;;;;;;;;;5098770;28;20447;-80
2021/10/15 04:57:12;;;;;;;5.87;4.10;;;;;;;;;;5113418;27;20774;-79
2021/10/15 04:59:40;;;;;;;4.40;3.63;;;;;;;;;;5124832;27;20540;-80
2021/10/15 05:02:07;;;;;;;7.27;3.70;;;;;;;;;;5114683;27;20431;-79
2021/10/15 05:04:36;;;;;;;4.70;3.60;;;;;;;;;;5100948;28;20496;-80
2021/10/15 05:07:03;;;;;;;5.50;3.90;;;;;;;;;;5097299;28;20569;-79
2021/10/15 05:09:37;;;;;;;4.40;3.60;;;;;;;;;;5110531;28;20439;-81
2021/10/15 05:12:05;;;;;;;4.63;4.00;;;;;;;;;;5092747;28;20466;-81
2021/10/15 05:14:33;;;;;;;7.80;4.80;;;;;;;;;;5091641;28;20464;-81
2021/10/15 05:17:00;;;;;;;6.60;3.97;;;;;;;;;;5092092;28;20995;-78
2021/10/15 05:19:27;;;;;;;6.20;4.07;;;;;;;;;;5112337;27;21083;-78
2021/10/15 05:21:56;;;;;;;6.03;3.97;;;;;;;;;;5116560;27;20425;-78
2021/10/15 05:24:23;;;;;;;8.47;3.93;;;;;;;;;;5103389;28;20486;-81
2021/10/15 05:26:51;;;;;;;5.87;4.77;;;;;;;;;;5109197;28;20482;-81
2021/10/15 05:29:18;;;;;;;6.17;3.97;;;;;;;;;;5100116;28;20813;-80
2021/10/15 05:31:45;;;;;;;5.50;4.53;;;;;;;;;;5099823;28;20450;-82
2021/10/15 05:34:12;;;;;;;6.00;4.33;;;;;;;;;;5092811;28;20991;-81
2021/10/15 05:36:39;;;;;;;8.83;4.60;;;;;;;;;;5097819;28;21115;-80
2021/10/15 05:39:08;;;;;;;9.47;4.37;;;;;;;;;;5112552;28;20442;-80
2021/10/15 05:41:35;;;;;;;5.23;4.10;;;;;;;;;;5107135;28;21354;-81
2021/10/15 05:44:03;;;;;;;4.77;3.70;;;;;;;;;;5101305;28;20480;-79
2021/10/15 05:46:30;;;;;;;6.50;4.53;;;;;;;;;;5113272;28;20939;-83
2021/10/15 05:48:58;;;;;;;6.60;4.40;;;;;;;;;;5105680;28;20852;-84
2021/10/15 05:51:26;;;;;;;6.20;4.43;;;;;;;;;;5091268;28;20458;-82
2021/10/15 05:53:57;;;;;;;7.07;4.60;;;;;;;;;;5093095;28;20469;-81
2021/10/15 05:56:41;;;;;;;6.07;3.43;;;;;;;;;;5105453;28;20451;-81
2021/10/15 05:59:08;;;;;;;6.87;4.90;;;;;;;;;;5105332;28;21038;-83
2021/10/15 06:01:36;;;;;;;8.10;3.90;;;;;;;;;;5108349;28;20442;-80
2021/10/15 06:04:37;;;;;;;6.57;4.40;;;;;;;;;;5108718;28;20537;-80
2021/10/15 06:15:07;;;;;;;9.27;5.00;;;;;;;;;;5112537;28;20451;-82
2021/10/15 06:17:42;;;;;;;4.43;4.03;;;;;;;;;;5095875;28;20450;-80
2021/10/15 06:20:10;;;;;;;9.07;4.83;;;;;;;;;;5110369;28;20438;-80
2021/10/15 06:22:37;;;;;;;8.73;5.07;;;;;;;;;;5109298;28;20804;-79
2021/10/15 06:25:05;;;;;;;6.87;4.70;;;;;;;;;;5100887;28;20459;-79
2021/10/15 06:27:33;;;;;;;10.20;6.43;;;;;;;;;;5102920;28;20489;-80
2021/10/15 06:30:01;;;;;;;15.27;8.83;;;;;;;;;;5115188;28;20438;-81
2021/10/15 06:32:28;;;;;;;11.70;6.80;;;;;;;;;;5111419;27;20441;-82
2021/10/15 06:34:55;;;;;;;7.97;5.43;;;;;;;;;;5095874;28;20473;-80
2021/10/15 06:37:22;;;;;;;10.40;5.17;;;;;;;;;;5108846;28;20450;-79
2021/10/15 06:39:49;;;;;;;8.90;5.20;;;;;;;;;;5094302;28;20458;-79
2021/10/15 06:42:17;;;;;;;8.73;6.23;;;;;;;;;;5108013;27;20461;-80
2021/10/15 06:44:45;;;;;;;5.57;4.30;;;;;;;;;;5117236;27;21041;-81
2021/10/15 06:47:12;;;;;;;9.43;4.87;;;;;;;;;;5106236;27;20450;-82
2021/10/15 06:49:40;;;;;;;7.40;5.40;;;;;;;;;;5112180;28;20462;-82
2021/10/15 06:52:07;;;;;;;9.37;5.20;;;;;;;;;;5106115;28;20451;-79
2021/10/15 06:54:34;;;;;;;8.47;6.20;;;;;;;;;;5090531;28;20479;-81
2021/10/15 06:57:02;;;;;;;11.30;5.57;;;;;;;;;;5092978;28;20832;-80
2021/10/15 06:59:30;;;;;;;8.13;5.23;;;;;;;;;;5115118;27;20491;-80
2021/10/15 07:01:58;;;;;;;6.40;5.17;;;;;;;;;;5117203;27;20811;-79
2021/10/15 07:04:25;;;;;;;7.77;5.03;;;;;;;;;;5099842;27;20467;-79
2021/10/15 07:06:53;;;;;;;7.17;4.83;;;;;;;;;;5094198;27;20463;-83
2021/10/15 07:09:20;;;;;;;5.37;4.20;;;;;;;;;;5110303;28;20479;-81
2021/10/15 07:11:47;;;;;;;11.40;5.53;;;;;;;;;;5111799;28;20941;-82
2021/10/15 07:14:15;;;;;;;6.90;5.03;;;;;;;;;;5097340;28;20480;-79
2021/10/15 07:16:42;;;;;;;8.97;5.70;;;;;;;;;;5114289;28;20523;-81
2021/10/15 07:19:10;;;;;;;5.63;4.93;;;;;;;;;;5110147;28;20454;-83
2021/10/15 07:21:38;;;;;;;7.83;5.00;;;;;;;;;;5109738;27;20959;-80
2021/10/15 07:24:06;;;;;;;7.20;5.23;;;;;;;;;;5097999;27;22054;-80
2021/10/15 07:26:37;;;;;;;7.00;4.80;;;;;;;;;;5104760;27;20455;-82
2021/10/15 07:29:04;;;;;;;5.47;4.40;;;;;;;;;;5092323;28;20474;-79
2021/10/15 07:31:31;;;;;;;8.50;5.10;;;;;;;;;;5111943;28;20667;-84
2021/10/15 07:33:58;;;;;;;8.40;4.57;;;;;;;;;;5111267;28;20549;-81
2021/10/15 07:36:27;;;;;;;7.83;4.77;;;;;;;;;;5104663;28;20969;-80
2021/10/15 07:38:54;;;;;;;6.37;4.40;;;;;;;;;;5113625;28;20443;-83
2021/10/15 07:41:21;;;;;;;8.97;5.33;;;;;;;;;;5105465;28;20454;-84
2021/10/15 07:43:50;;;;;;;11.20;4.40;;;;;;;;;;5102385;27;21064;-80
2021/10/15 07:46:17;;;;;;;10.97;5.50;;;;;;;;;;5115383;27;21031;-81
2021/10/15 07:48:45;;;;;;;8.17;4.70;;;;;;;;;;5127587;27;20477;-83
2021/10/15 07:51:12;;;;;;;7.57;4.43;;;;;;;;;;5130718;27;20442;-84
2021/10/15 07:53:40;;;;;;;6.83;4.33;;;;;;;;;;5099467;28;21126;-83
2021/10/15 07:56:08;;;;;;;11.67;4.47;;;;;;;;;;5110638;28;20442;-84
2021/10/15 07:58:35;;;;;;;7.77;3.80;;;;;;;;;;5109125;28;20458;-85
2021/10/15 08:01:02;;;;;;;4.90;3.90;;;;;;;;;;5094702;27;20459;-86
2021/10/15 08:03:30;;;;;;;8.03;4.40;;;;;;;;;;5113721;27;20466;-84
2021/10/15 08:05:57;;;;;;;6.23;4.20;;;;;;;;;;5107502;27;21005;-82
2021/10/15 08:08:24;;;;;;;7.33;4.50;;;;;;;;;;5111229;28;20482;-81
2021/10/15 08:10:53;;;;;;;8.67;4.20;;;;;;;;;;5100549;28;20450;-84
2021/10/15 08:13:20;;;;;;;9.17;4.57;;;;;;;;;;5089003;28;20477;-83
2021/10/15 08:15:47;;;;;;;11.30;5.33;;;;;;;;;;5092333;28;20459;-82
2021/10/15 08:18:14;;;;;;;8.93;4.30;;;;;;;;;;5118811;27;20473;-83
2021/10/15 08:20:41;;;;;;;7.50;4.67;;;;;;;;;;5108331;27;20442;-83
2021/10/15 08:23:09;;;;;;;8.23;4.37;;;;;;;;;;5107993;28;20485;-79
2021/10/15 08:25:37;;;;;;;12.93;4.63;;;;;;;;;;5110913;28;20544;-84
2021/10/15 08:28:05;;;;;;;6.53;4.73;;;;;;;;;;5102668;28;20556;-80
2021/10/15 08:30:33;;;;;;;6.20;4.50;;;;;;;;;;5088757;28;20456;-79
2021/10/15 08:33:00;;;;;;;5.17;4.47;;;;;;;;;;5099555;27;21728;-80
2021/10/15 08:35:27;;;;;;;9.10;5.10;;;;;;;;;;5106810;27;20457;-80
2021/10/15 08:37:55;;;;;;;10.40;4.60;;;;;;;;;;5111687;27;20431;-79
2021/10/15 08:40:22;;;;;;;8.67;4.93;;;;;;;;;;5107388;28;20439;-85
2021/10/15 08:42:53;;;;;;;6.43;5.13;;;;;;;;;;5093969;28;20477;-81
2021/10/15 08:45:25;;;;;;;9.40;4.80;;;;;;;;;;5100645;28;20455;-83
2021/10/15 08:47:52;;;;;;;8.73;5.70;;;;;;;;;;5093406;28;20454;-82
2021/10/15 08:50:20;;;;;;;7.50;5.73;;;;;;;;;;5110592;27;20813;-82
2021/10/15 08:52:47;;;;;;;8.70;5.40;;;;;;;;;;5098910;28;20490;-83
2021/10/15 08:55:14;;;;;;;7.53;4.53;;;;;;;;;;5108033;28;20428;-83
2021/10/15 08:57:47;;;;;;;4.73;4.23;;;;;;;;;;5104368;28;20446;-86
2021/10/15 09:00:25;;;;;;;7.23;5.27;;;;;;;;;;5108443;28;20438;-84
2021/10/15 09:03:07;;;;;;;9.07;4.97;;;;;;;;;;5093446;28;21901;-81
2021/10/15 09:05:35;;;;;;;9.67;5.30;;;;;;;;;;5107406;27;20422;-83
2021/10/15 09:08:03;;;;;;;9.43;5.73;;;;;;;;;;5110141;27;20485;-85
2021/10/15 09:10:31;;;;;;;8.87;4.90;;;;;;;;;;5099152;28;20455;-84
2021/10/15 09:12:58;;;;;;;7.83;4.67;;;;;;;;;;5091134;28;20456;-82
2021/10/15 09:15:33;;;;;;;7.80;5.60;;;;;;;;;;5092012;28;20439;-80
2021/10/15 09:18:10;;;;;;;8.40;5.63;;;;;;;;;;5102252;28;20447;-84
2021/10/15 09:20:38;;;;;;;9.47;5.30;;;;;;;;;;5091924;28;20449;-80
2021/10/15 09:23:06;;;;;;;7.80;5.00;;;;;;;;;;5113247;28;20462;-81
2021/10/15 09:25:33;;;;;;;11.57;6.37;;;;;;;;;;5114886;28;20790;-79
2021/10/15 09:28:00;;;;;;;8.63;5.23;;;;;;;;;;5092704;28;20457;-81
2021/10/15 09:30:29;;;;;;;9.77;5.03;;;;;;;;;;5122371;28;20442;-81
2021/10/15 09:32:57;;;;;;;10.63;5.47;;;;;;;;;;5120985;27;20562;-81
2021/10/15 09:35:25;;;;;;;10.30;5.50;;;;;;;;;;5106488;28;20470;-84
2021/10/15 09:37:56;;;;;;;11.27;5.10;;;;;;;;;;5109548;28;20445;-83
2021/10/15 09:40:24;;;;;;;10.23;6.10;;;;;;;;;;5089914;28;20525;-79
2021/10/15 09:42:52;;;;;;;12.53;7.07;;;;;;;;;;5090042;28;20470;-82
2021/10/15 09:45:20;;;;;;;15.53;9.60;;;;;;;;;;5092353;28;20459;-81
2021/10/15 09:47:48;;;;;;;13.70;10.03;;;;;;;;;;5107632;28;20431;-81
2021/10/15 09:50:16;;;;;;;14.73;8.43;;;;;;;;;;5101495;28;20494;-81
2021/10/15 09:52:44;;;;;;;10.30;7.13;;;;;;;;;;5091666;28;21425;-82
2021/10/15 09:55:17;;;;;;;13.00;7.13;;;;;;;;;;5096221;28;20454;-81
2021/10/15 09:57:45;;;;;;;9.50;6.20;;;;;;;;;;5105999;28;20946;-81
2021/10/15 10:00:14;;;;;;;9.40;5.57;;;;;;;;;;5107856;28;20438;-78
2021/10/15 10:02:41;;;;;;;8.30;6.07;;;;;;;;;;5098357;28;20482;-83
2021/10/15 10:05:12;;;;;;;8.93;6.10;;;;;;;;;;5108912;27;20480;-81
2021/10/15 10:07:40;;;;;;;9.00;6.23;;;;;;;;;;5117920;27;20830;-81
2021/10/15 10:10:08;;;;;;;13.20;6.20;;;;;;;;;;5098068;27;20485;-79
2021/10/15 10:12:37;;;;;;;11.93;6.63;;;;;;;;;;5100866;28;20454;-80
2021/10/15 10:15:05;;;;;;;10.97;6.63;;;;;;;;;;5103546;28;21192;-81
2021/10/15 10:17:33;;;;;;;9.33;6.50;;;;;;;;;;5108254;28;20461;-81
2021/10/15 10:20:05;;;;;;;10.30;6.47;;;;;;;;;;5117276;27;20444;-81
2021/10/15 10:22:34;;;;;;;11.97;7.17;;;;;;;;;;5096989;27;20809;-82
2021/10/15 10:25:02;;;;;;;17.70;10.13;;;;;;;;;;5094977;28;20521;-80
2021/10/15 10:27:30;;;;;;;13.13;8.80;;;;;;;;;;5091517;28;20815;-80
2021/10/15 10:29:59;;;;;;;21.47;10.13;;;;;;;;;;5092203;28;20468;-81
2021/10/15 10:32:27;;;;;;;17.70;8.73;;;;;;;;;;5091211;28;20433;-82
2021/10/15 10:34:55;;;;;;;15.87;8.87;;;;;;;;;;5094425;27;20459;-84
2021/10/15 10:37:22;;;;;;;16.07;8.80;;;;;;;;;;5117692;27;20452;-83
2021/10/15 10:40:05;;;;;;;11.03;6.73;;;;;;;;;;5109625;27;20873;-82
2021/10/15 10:42:32;;;;;;;10.60;8.27;;;;;;;;;;5097192;28;20453;-83
2021/10/15 10:45:14;;;;;;;11.83;7.57;;;;;;;;;;5102301;28;20456;-81
2021/10/15 10:48:02;;;;;;;13.40;8.10;;;;;;;;;;5087192;28;21042;-82
2021/10/15 10:50:29;;;;;;;11.07;7.53;;;;;;;;;;5089716;28;20502;-80
2021/10/15 10:53:07;;;;;;;9.23;7.83;;;;;;;;;;5091752;27;20481;-82
2021/10/15 10:55:36;;;;;;;9.33;7.23;;;;;;;;;;5106753;27;22006;-79
2021/10/15 10:58:24;;;;;;;10.90;7.50;;;;;;;;;;5089815;28;20537;-81
2021/10/15 11:00:51;;;;;;;8.43;7.47;;;;;;;;;;5087109;28;20651;-82
2021/10/15 11:03:33;;;;;;;8.93;7.80;;;;;;;;;;5089055;28;20479;-79
2021/10/15 11:06:03;;;;;;;12.20;8.50;;;;;;;;;;5089444;28;20442;-85
2021/10/15 11:08:31;;;;;;;10.30;8.30;;;;;;;;;;5102405;27;20442;-84
2021/10/15 11:11:13;;;;;;;8.27;6.80;;;;;;;;;;5104579;27;20437;-79
2021/10/15 11:13:41;;;;;;;10.43;7.30;;;;;;;;;;5111496;27;20509;-80
2021/10/15 11:16:20;;;;;;;9.40;7.73;;;;;;;;;;5097350;28;20450;-83
2021/10/15 11:18:48;;;;;;;8.13;7.13;;;;;;;;;;5088059;28;20887;-82
2021/10/15 11:21:17;;;;;;;8.50;7.70;;;;;;;;;;5104287;28;20458;-81
2021/10/15 11:23:44;;;;;;;9.70;7.30;;;;;;;;;;5095333;28;20573;-84
2021/10/15 11:26:11;;;;;;;9.13;7.33;;;;;;;;;;5095636;28;20469;-82
2021/10/15 11:28:38;;;;;;;10.10;6.30;;;;;;;;;;5114063;28;20448;-85
2021/10/15 11:31:11;;;;;;;11.17;6.37;;;;;;;;;;5116154;27;20437;-83
2021/10/15 11:33:38;;;;;;;7.07;6.20;;;;;;;;;;5108944;27;20832;-81
2021/10/15 11:36:07;;;;;;;7.40;6.70;;;;;;;;;;5112290;27;20768;-82
2021/10/15 11:38:35;;;;;;;9.50;6.07;;;;;;;;;;5093160;28;20465;-81
2021/10/15 11:41:03;;;;;;;11.63;7.60;;;;;;;;;;5091076;28;20457;-83
2021/10/15 11:43:32;;;;;;;8.30;4.83;;;;;;;;;;5101674;28;20805;-79
2021/10/15 11:46:00;;;;;;;5.93;4.13;;;;;;;;;;5109558;27;20448;-83
2021/10/15 11:48:29;;;;;;;6.43;3.47;;;;;;;;;;5113388;27;20448;-85
2021/10/15 11:50:58;;;;;;;3.77;2.90;;;;;;;;;;5103072;28;20551;-86
2021/10/15 11:53:28;;;;;;;4.37;2.90;;;;;;;;;;5109702;28;20468;-83
2021/10/15 11:55:55;;;;;;;5.33;3.13;;;;;;;;;;5107648;28;20453;-83
2021/10/15 11:58:26;;;;;;;6.60;4.17;;;;;;;;;;5111134;28;20441;-82
2021/10/15 12:00:55;;;;;;;4.90;3.80;;;;;;;;;;5108290;28;20463;-84
2021/10/15 12:03:30;;;;;;;4.27;3.33;;;;;;;;;;5113369;28;20464;-81
2021/10/15 12:06:10;;;;;;;4.77;4.37;;;;;;;;;;5106263;28;20463;-81
2021/10/15 12:08:38;;;;;;;5.63;3.60;;;;;;;;;;5105245;27;20461;-84
2021/10/15 12:11:07;;;;;;;7.27;4.13;;;;;;;;;;5115059;27;20449;-84
2021/10/15 12:13:35;;;;;;;6.20;4.50;;;;;;;;;;5112180;27;20480;-84
2021/10/15 12:16:02;;;;;;;5.50;4.50;;;;;;;;;;5103005;28;20477;-80
2021/10/15 12:18:30;;;;;;;7.63;4.60;;;;;;;;;;5090027;28;20806;-80
2021/10/15 12:21:09;;;;;;;6.83;4.10;;;;;;;;;;5107872;28;20455;-82
2021/10/15 12:23:51;;;;;;;5.07;3.77;;;;;;;;;;5089694;28;20484;-82
2021/10/15 12:26:19;;;;;;;7.07;4.00;;;;;;;;;;5089817;28;20460;-81
2021/10/15 12:28:47;;;;;;;4.73;3.60;;;;;;;;;;5089498;28;20543;-83
2021/10/15 12:31:29;;;;;;;4.10;3.70;;;;;;;;;;5116899;27;20433;-81
2021/10/15 12:34:04;;;;;;;8.67;4.23;;;;;;;;;;5104362;28;20480;-84
2021/10/15 12:36:31;;;;;;;5.03;4.27;;;;;;;;;;5089944;28;20939;-81
2021/10/15 12:39:13;;;;;;;8.00;3.90;;;;;;;;;;5089962;28;20432;-81
2021/10/15 12:41:42;;;;;;;4.93;3.57;;;;;;;;;;5100093;28;20787;-84
2021/10/15 12:44:18;;;;;;;4.83;3.70;;;;;;;;;;5102305;28;20505;-81
2021/10/15 12:46:54;;;;;;;7.23;4.10;;;;;;;;;;5091896;28;20448;-82
2021/10/15 12:49:21;;;;;;;6.27;3.57;;;;;;;;;;5105512;28;20500;-84
2021/10/15 12:51:48;;;;;;;4.03;3.30;;;;;;;;;;5109013;27;20450;-84
2021/10/15 12:54:38;;;;;;;5.00;3.60;;;;;;;;;;5107428;27;20490;-81
2021/10/15 12:57:15;;;;;;;7.60;3.90;;;;;;;;;;5108059;28;20435;-84
2021/10/15 12:59:42;;;;;;;6.30;3.77;;;;;;;;;;5103728;28;20450;-81
2021/10/15 13:02:10;;;;;;;5.53;5.03;;;;;;;;;;5108354;28;20445;-84
2021/10/15 13:04:38;;;;;;;5.10;4.27;;;;;;;;;;5107180;28;20470;-84
2021/10/15 13:07:05;;;;;;;6.57;3.50;;;;;;;;;;5094778;27;20499;-83
2021/10/15 13:09:33;;;;;;;3.97;3.63;;;;;;;;;;5110695;27;20576;-81
2021/10/15 13:12:01;;;;;;;6.50;3.53;;;;;;;;;;5111465;27;20923;-82
2021/10/15 13:14:30;;;;;;;7.20;3.50;;;;;;;;;;5093326;28;20489;-85
2021/10/15 13:16:58;;;;;;;5.60;3.40;;;;;;;;;;5092541;28;20440;-79
2021/10/15 13:19:25;;;;;;;5.90;3.07;;;;;;;;;;5105836;28;20439;-85
2021/10/15 13:21:52;;;;;;;8.70;3.40;;;;;;;;;;5102170;28;20450;-82
2021/10/15 13:24:19;;;;;;;6.17;3.60;;;;;;;;;;5088774;28;20486;-82
2021/10/15 13:26:47;;;;;;;4.43;2.77;;;;;;;;;;5090689;28;20437;-84
2021/10/15 13:29:14;;;;;;;4.23;2.87;;;;;;;;;;5109018;28;20945;-84
2021/10/15 13:31:43;;;;;;;5.10;2.90;;;;;;;;;;5107445;28;20452;-83
2021/10/15 13:34:10;;;;;;;9.10;3.83;;;;;;;;;;5109867;28;20597;-84
2021/10/15 13:36:40;;;;;;;2.80;2.60;;;;;;;;;;5097257;28;20482;-81
2021/10/15 13:39:09;;;;;;;5.30;2.97;;;;;;;;;;5092856;28;20457;-82
2021/10/15 13:41:51;;;;;;;6.13;3.17;;;;;;;;;;5089848;28;20446;-81
2021/10/15 13:47:05;;;;;;;6.93;2.73;;;;;;;;;;5091054;28;20442;-83
2021/10/15 13:52:13;;;;;;;5.70;3.10;;;;;;;;;;5098187;27;20863;-79
2021/10/15 13:54:41;;;;;;;4.67;2.63;;;;;;;;;;5113213;27;20484;-80
2021/10/15 13:57:10;;;;;;;6.30;2.67;;;;;;;;;;5115670;27;20506;-82
2021/10/15 13:59:42;;;;;;;5.53;2.73;;;;;;;;;;5110511;28;20445;-80
2021/10/15 14:02:11;;;;;;;5.03;2.53;;;;;;;;;;5125884;27;20437;-82
2021/10/15 14:04:41;;;;;;;5.13;3.20;;;;;;;;;;5113172;28;20836;-82
2021/10/15 14:07:08;;;;;;;3.17;2.67;;;;;;;;;;5097213;27;20466;-81
2021/10/15 14:09:36;;;;;;;5.47;2.87;;;;;;;;;;5112283;27;20993;-81
2021/10/15 14:12:04;;;;;;;7.70;2.93;;;;;;;;;;5108889;28;20967;-82
2021/10/15 14:14:31;;;;;;;4.67;2.43;;;;;;;;;;5092213;28;20551;-82
2021/10/15 14:16:58;;;;;;;6.93;2.93;;;;;;;;;;5091584;28;20859;-82
2021/10/15 14:19:27;;;;;;;6.83;2.80;;;;;;;;;;5110986;28;20456;-82
2021/10/15 14:21:54;;;;;;;4.40;3.50;;;;;;;;;;5106477;28;20453;-84
2021/10/15 14:24:21;;;;;;;5.23;3.20;;;;;;;;;;5113519;27;20622;-84
2021/10/15 14:26:49;;;;;;;4.53;3.03;;;;;;;;;;5122481;27;20443;-84
2021/10/15 14:29:16;;;;;;;5.33;2.70;;;;;;;;;;5100078;27;20462;-82
2021/10/15 14:31:44;;;;;;;5.07;2.43;;;;;;;;;;5092556;28;20488;-83
2021/10/15 14:34:11;;;;;;;4.47;2.90;;;;;;;;;;5090547;28;20449;-84
2021/10/15 14:36:39;;;;;;;3.53;2.37;;;;;;;;;;5099297;28;20455;-84
2021/10/15 14:39:07;;;;;;;4.10;2.67;;;;;;;;;;5104498;27;20441;-86
2021/10/15 14:41:35;;;;;;;8.13;3.07;;;;;;;;;;5105574;27;20467;-85
2021/10/15 14:44:02;;;;;;;4.80;2.40;;;;;;;;;;5113546;27;20478;-81
2021/10/15 14:46:30;;;;;;;7.03;2.87;;;;;;;;;;5102931;28;20467;-79
2021/10/15 14:48:57;;;;;;;7.20;2.87;;;;;;;;;;5112562;28;20432;-81
2021/10/15 14:51:25;;;;;;;5.33;3.00;;;;;;;;;;5106221;28;20520;-79
2021/10/15 14:53:53;;;;;;;5.43;3.10;;;;;;;;;;5097158;27;20488;-79
2021/10/15 14:56:20;;;;;;;6.67;3.23;;;;;;;;;;5118692;27;20450;-79
2021/10/15 14:58:48;;;;;;;5.67;2.97;;;;;;;;;;5113814;27;20449;-80
2021/10/15 15:01:15;;;;;;;5.87;3.10;;;;;;;;;;5108572;28;20436;-82
2021/10/15 15:03:43;;;;;;;3.10;2.60;;;;;;;;;;5103541;28;20485;-80
2021/10/15 15:06:10;;;;;;;5.00;2.77;;;;;;;;;;5091185;28;20447;-80